Latest Weather Observations for Central Arnhem Plateau

IDD60801

Issued at 4:35 pm CST Friday 31 October 2014 (issued every 30 minutes, with the page automatically refreshed every 10 minutes)

About weather observations | Map of weather stations | Latest weather observations for NT | Other Formats
Station Details ID: 014909 Name: CENTRAL ARNHEM PLATEAU Lat: -13.33 Lon: 133.09 Height: 416.0 m
Data from the previous 72 hours. | See also: Recent months for locations in Northern Territory
Date/Time
CST
Temp
°C
App
Temp
°C
Dew
Point
Rel
Hum
%
Delta-T
°C
Wind Press
QNH
hPa
Press
MSL
hPa
Rain
since 9 am
mm
Dir
 
Spd
km/h
Gust
km/h
Spd
kts
Gust
kts
31/04:30pm 35.8 31.9 7.0 17 16.3 NE 17 28 9 15 1009.0 1005.9 0.0
31/04:00pm 35.7 33.5 7.7 18 16.0 NNE 9 15 5 8 1009.1 1006.0 0.0
31/03:30pm 35.3 32.2 7.4 18 15.8 ENE 13 20 7 11 1009.4 1006.3 0.0
31/03:00pm 35.2 31.9 8.1 19 15.5 ENE 15 28 8 15 1009.7 1006.6 0.0
31/02:30pm 35.2 31.2 8.9 20 15.2 NNE 20 30 11 16 1010.0 1006.9 0.0
31/02:00pm 35.8 31.5 9.3 20 15.5 NNE 22 30 12 16 1010.3 1007.3 0.0
31/01:30pm 33.7 29.9 9.0 22 14.2 NE 19 26 10 14 1010.9 1007.9 0.0
31/01:00pm 33.4 30.1 8.1 21 14.4 NE 15 33 8 18 1011.5 1008.4 0.0
31/12:30pm 33.2 30.2 9.3 23 13.8 NE 15 26 8 14 1012.0 1008.9 0.0
31/12:00pm 32.8 29.3 8.9 23 13.7 NNE 17 24 9 13 1012.6 1009.6 0.0
31/11:30am 31.5 29.3 10.8 28 12.1 NE 13 22 7 12 1013.1 1010.1 0.0
31/11:00am 31.0 29.1 10.4 28 12.0 NNE 11 22 6 12 1013.4 1010.4 0.0
31/10:30am 30.1 28.8 12.5 34 10.5 N 11 19 6 10 1013.7 1010.7 0.0
31/10:00am 28.9 29.1 15.8 45 8.2 NNW 9 17 5 9 1014.1 1011.0 0.0
31/09:30am 27.7 27.5 15.7 48 7.5 NNE 11 17 6 9 1014.3 1011.2 0.0
31/09:00am 26.8 27.2 16.4 53 6.5 NW 9 15 5 8 1014.2 1011.1 0.0
31/08:30am 25.4 26.3 17.6 62 5.0 WNW 9 13 5 7 1014.1 1011.0 0.0
31/08:00am 24.6 24.9 17.8 66 4.3 WNW 13 15 7 8 1013.7 1010.7 0.0
31/07:30am 23.8 24.4 18.7 73 3.3 W 13 15 7 8 1013.3 1010.3 0.0
31/07:00am 23.1 24.3 19.1 78 2.6 NW 11 15 6 8 1012.8 1009.8 0.0
31/06:30am 22.6 24.2 19.2 81 2.2 NW 9 13 5 7 1012.4 1009.4 0.0
31/06:00am 22.5 23.6 18.9 80 2.3 WNW 11 15 6 8 1012.1 1009.0 0.0
31/05:30am 22.7 23.9 19.1 80 2.3 WNW 11 15 6 8 1011.9 1008.8 0.0
31/05:00am 22.9 24.1 19.1 79 2.5 WNW 11 13 6 7 1011.5 1008.4 0.0
31/04:30am 23.1 24.1 18.6 76 2.9 WNW 11 15 6 8 1011.2 1008.2 0.0
31/04:00am 23.2 24.5 18.5 75 3.0 WNW 9 11 5 6 1010.9 1007.9 0.0
31/03:30am 23.4 24.6 18.3 73 3.3 WNW 9 11 5 6 1010.8 1007.8 0.0
31/03:00am 23.9 24.8 18.3 71 3.6 WNW 11 15 6 8 1010.8 1007.8 0.0
31/02:30am 24.4 25.3 18.3 69 3.9 NW 11 15 6 8 1011.1 1008.1 0.0
31/02:00am 24.8 25.5 18.0 66 4.3 NW 11 15 6 8 1011.2 1008.2 0.0
31/01:30am 25.1 26.0 17.6 63 4.8 WNW 9 11 5 6 1011.4 1008.3 0.0
31/01:00am 25.3 26.6 17.5 62 5.0 NNW 7 9 4 5 1011.6 1008.5 0.0
31/12:30am 25.9 26.7 17.3 59 5.5 NNW 9 11 5 6 1011.8 1008.7 0.0
31/12:00am 26.2 27.0 17.3 58 5.7 NW 9 13 5 7 1011.9 1008.8 0.0
 
Date/Time
CST
Temp
°C
App
Temp
°C
Dew
Point
Rel
Hum
%
Delta-T
°C
Wind Press
QNH
hPa
Press
MSL
hPa
Rain
since 9 am
mm
Dir
 
Spd
km/h
Gust
km/h
Spd
kts
Gust
kts
30/11:30pm 26.5 26.9 17.3 57 5.9 NW 11 15 6 8 1012.1 1009.0 0.0
30/11:00pm 26.8 27.2 17.3 56 6.0 NNW 11 15 6 8 1012.2 1009.1 0.0
30/10:30pm 27.4 27.3 17.0 53 6.6 NNW 13 19 7 10 1012.2 1009.1 0.0
30/10:00pm 27.9 27.7 16.8 50 7.0 NW 13 20 7 11 1012.0 1008.9 0.0
30/09:30pm 28.6 27.9 16.5 48 7.7 NW 15 20 8 11 1011.7 1008.6 0.0
30/09:00pm 29.3 27.7 16.1 44 8.3 NW 19 28 10 15 1011.4 1008.3 0.0
30/08:30pm 30.3 29.2 15.2 40 9.4 NW 15 26 8 14 1011.0 1008.0 0.0
30/08:00pm 31.1 29.5 8.2 24 12.9 NE 6 6 3 3 1010.5 1007.5 0.0
30/07:30pm 32.5 30.9 8.0 22 13.8 NE 6 7 3 4 1010.3 1007.3 0.0
30/07:00pm 33.8 31.3 8.4 21 14.5 NE 11 13 6 7 1010.0 1006.9 0.0
30/06:30pm 34.8 31.8 7.8 19 15.4 ENE 13 20 7 11 1009.7 1006.6 0.0
30/06:00pm 35.6 31.8 7.6 18 15.9 E 17 24 9 13 1009.4 1006.3 0.0
30/05:30pm 36.2 31.8 6.4 16 16.7 E 19 26 10 14 1009.2 1006.1 0.0
30/05:00pm 37.1 32.6 6.2 15 17.3 ENE 19 33 10 18 1009.0 1005.9 0.0
30/04:30pm 36.1 31.5 6.3 16 16.7 NE 20 28 11 15 1008.9 1005.8 0.0
30/04:00pm 36.4 31.4 6.6 16 16.8 NE 22 30 12 16 1008.9 1005.8 0.0
30/03:30pm 37.3 33.4 7.3 16 17.1 ENE 17 24 9 13 1009.2 1006.1 0.0
30/03:00pm 37.1 32.6 7.1 16 17.1 E 20 30 11 16 1009.5 1006.4 0.0
30/02:30pm 37.1 32.8 7.1 16 17.1 NE 19 30 10 16 1009.8 1006.7 0.0
30/02:00pm 37.2 33.4 8.9 18 16.5 ENE 19 33 10 18 1010.1 1007.1 0.0
30/01:30pm 35.1 32.0 8.8 20 15.2 NE 15 24 8 13 1010.8 1007.8 0.0
30/01:00pm 34.9 31.7 8.6 20 15.1 ENE 15 22 8 12 1011.4 1008.3 0.0
30/12:30pm 34.9 31.4 8.6 20 15.1 E 17 28 9 15 1012.0 1008.9 0.0
30/12:00pm 34.5 31.1 9.0 21 14.7 ENE 17 28 9 15 1012.6 1009.6 0.0
30/11:30am 33.9 32.0 10.5 24 13.8 NE 11 24 6 13 1012.9 1009.9 0.0
30/11:00am 31.8 29.1 10.5 27 12.5 NE 15 24 8 13 1013.3 1010.3 0.0
30/10:30am 31.7 30.2 10.4 27 12.4 N 9 22 5 12 1013.6 1010.6 0.0
30/10:00am 29.7 28.4 11.2 31 10.8 NNW 9 15 5 8 1014.1 1011.0 0.0
30/09:30am 28.1 27.5 13.6 41 8.8 W 9 15 5 8 1014.1 1011.0 0.0
30/09:00am 27.5 27.3 14.8 45 7.8 W 9 15 5 8 1014.1 1011.0 0.0
30/08:30am 25.7 25.2 14.8 51 6.7 W 11 17 6 9 1014.0 1010.9 0.0
30/08:00am 24.9 24.4 15.0 54 6.0 W 11 15 6 8 1013.7 1010.7 0.0
30/07:30am 23.9 23.9 15.1 58 5.4 W 9 13 5 7 1013.5 1010.5 0.0
30/07:00am 23.2 23.5 16.0 64 4.4 WNW 9 11 5 6 1013.3 1010.3 0.0
30/06:30am 22.3 22.8 15.6 66 4.1 NW 7 9 4 5 1013.0 1010.0 0.0
30/06:00am 22.2 22.3 15.5 66 4.1 WNW 9 11 5 6 1012.8 1009.8 0.0
30/05:30am 22.3 22.1 15.6 66 4.1 WNW 11 15 6 8 1012.6 1009.6 0.0
30/05:00am 22.5 22.3 15.8 66 4.1 WNW 11 17 6 9 1012.3 1009.3 0.0
30/04:30am 22.7 22.6 16.0 66 4.1 W 11 17 6 9 1012.1 1009.0 0.0
30/04:00am 22.8 22.7 16.1 66 4.1 WNW 11 15 6 8 1012.1 1009.0 0.0
30/03:30am 23.1 22.4 16.4 66 4.2 WNW 15 17 8 9 1012.0 1008.9 0.0
30/03:00am 23.4 23.1 16.4 64 4.3 WNW 13 17 7 9 1012.1 1009.0 0.0
30/02:30am 23.9 23.4 15.9 61 4.9 WNW 13 17 7 9 1012.2 1009.1 0.0
30/02:00am 24.3 24.0 14.4 54 6.0 WNW 9 13 5 7 1012.5 1009.5 0.0
30/01:30am 24.8 25.0 15.7 57 5.6 WNW 9 11 5 6 1012.8 1009.8 0.0
30/01:00am 25.3 24.7 15.6 55 6.0 NW 13 17 7 9 1013.1 1010.1 0.0
30/12:30am 25.6 26.2 16.7 58 5.6 NW 9 15 5 8 1013.4 1010.4 0.0
30/12:00am 26.0 26.6 16.8 57 5.8 WNW 9 13 5 7 1013.5 1010.5 0.0
 
Date/Time
CST
Temp
°C
App
Temp
°C
Dew
Point
Rel
Hum
%
Delta-T
°C
Wind Press
QNH
hPa
Press
MSL
hPa
Rain
since 9 am
mm
Dir
 
Spd
km/h
Gust
km/h
Spd
kts
Gust
kts
29/11:30pm 26.0 26.6 16.8 57 5.8 NNW 9 15 5 8 1013.9 1010.8 0.0
29/11:00pm 26.7 27.5 17.2 56 6.0 NNW 9 13 5 7 1014.2 1011.1 0.0
29/10:30pm 27.0 27.8 17.2 55 6.2 NNW 9 13 5 7 1014.3 1011.2 0.0
29/10:00pm 27.4 28.2 17.3 54 6.4 NNW 9 13 5 7 1014.0 1010.9 0.0
29/09:30pm 28.1 28.4 17.0 51 7.1 NNW 11 15 6 8 1013.5 1010.5 0.0
29/09:00pm 29.1 29.1 16.3 46 8.1 NNW 11 15 6 8 1013.2 1010.2 0.0
29/08:30pm 31.2 27.9 9.4 26 12.5 NNE 17 24 9 13 1012.6 1009.6 0.0
29/08:00pm 33.4 30.2 5.0 17 15.3 E 11 15 6 8 1011.9 1008.8 0.0
29/07:30pm 33.9 31.4 4.6 16 15.8 E 7 11 4 6 1011.6 1008.5 0.0
29/07:00pm 34.8 30.7 4.4 15 16.4 E 15 20 8 11 1011.0 1008.0 0.0
29/06:30pm 35.4 31.0 4.8 15 16.7 E 17 26 9 14 1010.7 1007.7 0.0
29/06:00pm 36.2 30.8 4.5 14 17.3 ESE 22 35 12 19 1010.4 1007.4 0.0
29/05:30pm 36.6 30.5 4.8 14 17.4 E 26 35 14 19 1010.1 1007.1 0.0
29/05:00pm 37.4 32.0 4.4 13 18.0 ESE 22 35 12 19 1009.9 1006.8 0.0
29/04:30pm 37.0 30.4 4.0 13 17.9 E 28 37 15 20 1010.0 1006.9 0.0
29/04:00pm 37.4 30.6 3.2 12 18.3 ESE 28 41 15 22 1010.0 1006.9 0.0
29/03:42pm 37.2 30.6 4.2 13 18.0 E 28 46 15 25 1010.1 1007.1 0.0
29/03:30pm 37.3 30.0 4.3 13 18.0 E 32 41 17 22 1010.1 1007.1 0.0
29/03:00pm 37.3 29.5 3.1 12 18.3 E 33 46 18 25 1010.2 1007.2 0.0
29/02:30pm 37.6 30.5 3.4 12 18.4 ESE 30 43 16 23 1010.5 1007.5 0.0
29/02:07pm 37.6 30.9 3.4 12 18.4 ENE 28 54 15 29 1010.5 1007.5 0.0
29/02:00pm 37.2 30.6 4.2 13 18.0 ESE 28 44 15 24 1010.9 1007.9 0.0
29/01:30pm 38.3 32.0 3.9 12 18.8 NE 26 43 14 23 1011.1 1008.1 0.0
29/01:00pm 35.7 29.8 4.1 14 17.0 ENE 24 37 13 20 1012.1 1009.0 0.0
29/12:30pm 36.7 29.9 4.9 14 17.5 ENE 30 52 16 28 1012.8 1009.8 0.0
29/12:24pm 35.8 28.4 4.2 14 17.1 ENE 32 52 17 28 1012.9 1009.9 0.0
29/12:00pm 34.9 28.0 4.4 15 16.5 E 30 41 16 22 1013.4 1010.4 0.0
29/11:30am 35.0 30.5 7.1 18 15.7 NE 20 33 11 18 1013.9 1010.8 0.0
29/11:00am 33.2 28.2 7.9 21 14.3 ENE 24 37 13 20 1014.4 1011.3 0.0
29/10:30am 31.4 27.8 8.4 24 13.0 ENE 17 24 9 13 1014.8 1011.8 0.0
29/10:00am 31.3 29.4 11.7 30 11.7 ENE 13 22 7 12 1015.0 1012.0 0.0
29/09:30am 29.6 27.6 11.6 33 10.6 E 13 24 7 13 1015.2 1012.2 0.0
29/09:00am 28.2 28.1 13.3 40 9.0 E 6 11 3 6 1015.3 1012.3 0.0
29/08:30am 26.2 26.0 14.6 48 7.1 NW 9 11 5 6 1015.4 1012.4 0.0
29/08:00am 24.7 26.7 16.9 62 4.9 WNW 2 9 1 5 1015.2 1012.2 0.0
29/07:30am 24.3 27.1 18.0 68 4.0 CALM 0 0 0 0 1015.0 1012.0 0.0
29/07:00am 21.7 23.8 16.2 71 3.4 CALM 0 6 0 3 1014.7 1011.7 0.0
29/06:30am 21.3 23.2 15.8 71 3.4 CALM 0 0 0 0 1014.3 1011.2 0.0
29/06:00am 21.3 23.1 15.6 70 3.5 CALM 0 0 0 0 1014.0 1010.9 0.0
29/05:30am 20.7 22.5 15.5 72 3.1 CALM 0 6 0 3 1013.7 1010.7 0.0
29/05:00am 21.2 22.9 15.3 69 3.6 CALM 0 0 0 0 1013.7 1010.7 0.0
29/04:30am 22.1 24.3 16.4 70 3.5 CALM 0 0 0 0 1013.5 1010.5 0.0
29/04:00am 21.7 23.1 15.5 68 3.8 N 2 6 1 3 1013.4 1010.4 0.0
29/03:30am 22.3 23.1 15.9 67 3.9 NNW 6 7 3 4 1013.0 1010.0 0.0
29/03:00am 22.0 23.3 15.1 65 4.2 N 2 6 1 3 1013.0 1010.0 0.0
29/02:30am 24.0 24.7 16.0 61 4.9 NW 7 11 4 6 1013.1 1010.1 0.0
29/02:00am 24.7 25.1 16.4 60 5.2 WNW 9 9 5 5 1013.4 1010.4 0.0
29/01:30am 24.6 25.3 16.1 59 5.3 WNW 7 9 4 5 1013.6 1010.6 0.0
29/01:00am 25.4 26.0 16.8 59 5.4 WNW 9 11 5 6 1013.7 1010.7 0.0
29/12:30am 25.0 25.1 14.5 52 6.4 NW 7 9 4 5 1013.7 1010.7 0.0
29/12:00am 25.4 25.1 12.6 45 7.5 NNW 6 9 3 5 1013.9 1010.8 0.0
 
Date/Time
CST
Temp
°C
App
Temp
°C
Dew
Point
Rel
Hum
%
Delta-T
°C
Wind Press
QNH
hPa
Press
MSL
hPa
Rain
since 9 am
mm
Dir
 
Spd
km/h
Gust
km/h
Spd
kts
Gust
kts
28/11:30pm 26.7 26.2 12.7 42 8.3 NW 7 9 4 5 1013.9 1010.8 0.0
28/11:00pm 26.4 25.4 5.4 26 11.0 CALM 0 0 0 0 1013.9 1010.8 0.0
28/10:30pm 28.5 26.3 5.4 23 12.2 E 6 7 3 4 1014.0 1010.9 0.0
28/10:00pm 29.3 26.8 4.7 21 12.9 NE 7 11 4 6 1013.7 1010.7 0.0
28/09:30pm 30.9 26.8 2.2 16 14.6 E 13 22 7 12 1013.3 1010.3 0.0
28/09:00pm 31.8 26.9 2.0 15 15.2 E 17 22 9 12 1012.8 1009.8 0.0
28/08:30pm 32.4 27.2 2.5 15 15.4 E 19 26 10 14 1012.3 1009.3 0.0
28/08:00pm 32.7 28.1 1.7 14 15.8 E 15 20 8 11 1011.9 1008.8 0.0
28/07:30pm 33.5 28.7 2.4 14 16.1 E 17 24 9 13 1011.4 1008.3 0.0
28/07:00pm 34.3 28.4 1.9 13 16.7 E 22 32 12 17 1010.8 1007.8 0.0
28/06:30pm 34.9 29.1 2.4 13 17.0 E 22 32 12 17 1010.4 1007.4 0.0
28/06:00pm 35.7 29.1 1.9 12 17.6 E 26 43 14 23 1010.0 1006.9 0.0
28/05:31pm 35.6 28.6 4.0 14 17.0 E 30 48 16 26 1009.8 1006.7 0.0
28/05:30pm 35.4 28.0 3.8 14 17.0 E 32 48 17 26 1009.8 1006.7 0.0
28/05:00pm 36.2 29.1 3.4 13 17.5 E 30 52 16 28 1009.6 1006.5 0.0
28/04:41pm 36.3 28.8 3.5 13 17.6 E 32 50 17 27 1009.5 1006.4 0.0

Other Formats:

Comma delimited format used in spreadsheet applications
http://www.bom.gov.au/fwo/IDD60801/IDD60801.94141.axf

JavaScript Object Notation format (JSON) in row-major order
http://www.bom.gov.au/fwo/IDD60801/IDD60801.94141.json